Plandome, New York
Current Conditions -  °F | °C
As of 10:51 AM on Friday 28 Nov 2014 (Local Time) from KLGA Reporting Station
Few Clouds Few Clouds  
Wind Chill: 25°   Ceiling: Unl
Heat Index: 36°   Visibility: 10mi
Dew Point: 20°   Wind: 21mph
Humidity: 52%   Direction: 320°NW
Pressure: 30.17"   Gusts: 29mph
Location:  40.7935°N, 73.6884°W
Report Text: KLGA 281551Z 32018G25KT 10SM FEW050 02/M07 A3017 RMK AO2 PK WND 32029/1534 SLP217 T00221067
Loading
Personal Weather Stations






























Interactive Weather Map New forecast layout! Learn more

10-Day Weather Forecast

Advertisements
Track Severe Weather on mobile